Time;durP1;ratioP1;P1;durP2;ratioP2;P2;SDS_P1;SDS_P2;PMS_P1;PMS_P2;Temp;Humidity;BMP_temperature;BMP_pressure;BME280_temperature;BME280_humidity;BME280_pressure;Samples;Min_cycle;Max_cycle;Signal;HPM_P1;HPM_P2
2021/12/28 00:01:05;;;;;;;25.77;3.30;;;8.10;99.90;;;;;;5023029;28;20039;-82
2021/12/28 00:03:30;;;;;;;19.00;3.00;;;8.00;99.90;;;;;;5022024;28;20053;-81
2021/12/28 00:05:56;;;;;;;35.42;4.40;;;8.00;99.90;;;;;;5003793;28;20060;-82
2021/12/28 00:08:22;;;;;;;24.98;3.22;;;8.10;99.90;;;;;;5050310;28;20081;-81
2021/12/28 00:10:48;;;;;;;28.33;3.90;;;8.10;99.90;;;;;;5020236;28;20025;-81
2021/12/28 00:13:17;;;;;;;23.05;2.97;;;8.00;99.90;;;;;;4997910;28;20462;-82
2021/12/28 00:15:49;;;;;;;31.27;4.53;;;8.00;99.90;;;;;;5036349;28;20036;-81
2021/12/28 00:18:15;;;;;;;19.58;3.22;;;8.00;99.90;;;;;;5021453;28;20043;-81
2021/12/28 00:20:44;;;;;;;28.90;3.33;;;8.10;99.90;;;;;;5020406;28;20479;-82
2021/12/28 00:23:19;;;;;;;20.23;4.03;;;8.00;99.90;;;;;;5030300;28;20541;-82
2021/12/28 00:25:51;;;;;;;33.50;3.78;;;8.00;99.90;;;;;;5056373;28;20020;-82
2021/12/28 00:28:17;;;;;;;39.03;3.83;;;8.00;99.90;;;;;;5002165;28;20034;-83
2021/12/28 00:30:43;;;;;;;23.83;3.10;;;8.00;99.90;;;;;;5019849;28;20051;-81
2021/12/28 00:33:11;;;;;;;29.27;4.57;;;8.00;99.90;;;;;;5036059;28;20028;-81
2021/12/28 00:35:39;;;;;;;21.15;2.92;;;8.10;99.90;;;;;;5036781;28;20033;-82
2021/12/28 00:38:08;;;;;;;18.95;3.47;;;8.10;99.90;;;;;;5018794;28;20527;-82
2021/12/28 00:40:34;;;;;;;21.70;3.10;;;8.10;99.90;;;;;;5018354;28;20396;-81
2021/12/28 00:43:00;;;;;;;25.13;3.13;;;8.10;99.90;;;;;;5050764;28;20067;-82
2021/12/28 00:45:27;;;;;;;24.65;3.30;;;8.10;99.90;;;;;;5042341;28;20063;-82
2021/12/28 00:47:53;;;;;;;32.72;4.18;;;8.00;99.90;;;;;;5039486;28;20057;-83
2021/12/28 00:50:19;;;;;;;13.93;2.92;;;8.10;99.90;;;;;;5043654;28;20055;-83
2021/12/28 00:52:46;;;;;;;31.45;4.05;;;8.10;99.90;;;;;;5027004;28;20037;-82
2021/12/28 00:55:14;;;;;;;15.40;2.75;;;8.10;99.90;;;;;;5022583;28;20490;-82
2021/12/28 00:57:39;;;;;;;24.55;3.42;;;8.10;99.90;;;;;;5023161;28;20036;-83
2021/12/28 01:00:09;;;;;;;22.15;2.88;;;8.10;99.90;;;;;;5006609;28;20029;-83
2021/12/28 01:02:35;;;;;;;27.65;3.33;;;8.10;99.90;;;;;;5028472;28;20086;-80
2021/12/28 01:05:01;;;;;;;23.80;3.08;;;8.00;99.90;;;;;;5065064;28;20021;-81
2021/12/28 01:07:27;;;;;;;20.45;2.92;;;8.00;99.90;;;;;;5051732;28;20067;-81
2021/12/28 01:09:52;;;;;;;18.92;2.50;;;8.00;99.90;;;;;;5018501;28;20040;-82
2021/12/28 01:12:18;;;;;;;19.45;3.38;;;8.10;99.90;;;;;;5018194;28;20661;-81
2021/12/28 01:14:44;;;;;;;21.05;2.70;;;8.10;99.90;;;;;;5001535;28;20032;-81
2021/12/28 01:17:10;;;;;;;20.40;2.47;;;8.10;99.90;;;;;;5017738;28;20384;-82
2021/12/28 01:22:04;;;;;;;20.35;3.30;;;8.10;99.90;;;;;;5096734;22;20055;-88
2021/12/28 01:24:30;;;;;;;27.20;3.00;;;8.00;99.90;;;;;;5037071;28;20024;-88
2021/12/28 01:26:57;;;;;;;23.02;2.88;;;8.00;99.90;;;;;;5041924;28;20029;-88
2021/12/28 01:29:22;;;;;;;16.13;3.10;;;8.10;99.90;;;;;;5046859;28;20036;-88
2021/12/28 01:31:48;;;;;;;18.33;3.03;;;8.00;99.90;;;;;;5051957;28;20025;-88
2021/12/28 01:34:14;;;;;;;13.93;2.80;;;8.00;99.90;;;;;;5023312;28;20060;-88
2021/12/28 01:36:39;;;;;;;16.13;2.55;;;8.00;99.90;;;;;;5016526;28;20071;-88
2021/12/28 01:39:07;;;;;;;18.38;2.13;;;8.00;99.90;;;;;;5034380;28;20031;-88
2021/12/28 01:41:33;;;;;;;20.70;2.70;;;8.00;99.90;;;;;;5029267;28;20332;-87
2021/12/28 01:44:04;;;;;;;9.85;2.28;;;8.00;99.90;;;;;;5037553;28;20043;-88
2021/12/28 01:46:30;;;;;;;14.70;1.98;;;8.00;99.90;;;;;;5045405;28;20035;-87
2021/12/28 01:48:55;;;;;;;21.23;3.97;;;8.00;99.90;;;;;;5046756;28;20032;-88
2021/12/28 01:51:23;;;;;;;17.88;2.90;;;8.00;99.90;;;;;;5033587;28;20041;-88
2021/12/28 01:53:55;;;;;;;11.60;2.40;;;8.00;99.90;;;;;;5018872;28;20028;-88
2021/12/28 01:56:25;;;;;;;15.73;2.47;;;8.00;99.90;;;;;;5018169;28;20124;-87
2021/12/28 01:58:51;;;;;;;14.70;4.40;;;8.00;99.90;;;;;;5031908;28;20029;-88
2021/12/28 02:01:17;;;;;;;18.42;2.53;;;8.00;99.90;;;;;;5034854;28;20032;-88
2021/12/28 02:03:43;;;;;;;11.02;2.13;;;7.90;99.90;;;;;;5045113;28;20094;-87
2021/12/28 02:06:10;;;;;;;14.02;2.95;;;7.90;99.90;;;;;;5050714;28;20032;-88
2021/12/28 02:08:37;;;;;;;12.07;2.30;;;7.90;99.90;;;;;;5035985;28;20029;-88
2021/12/28 02:11:04;;;;;;;11.70;3.15;;;7.90;99.90;;;;;;5015193;28;20059;-88
2021/12/28 02:13:29;;;;;;;15.18;1.98;;;7.90;99.90;;;;;;5012501;28;20030;-87
2021/12/28 02:15:56;;;;;;;8.75;2.30;;;7.80;99.90;;;;;;5045384;28;20082;-88
2021/12/28 02:18:23;;;;;;;21.83;3.00;;;7.80;99.90;;;;;;5015390;28;20037;-88
2021/12/28 02:20:51;;;;;;;18.60;2.65;;;7.80;99.90;;;;;;5016417;28;20064;-88
2021/12/28 02:23:17;;;;;;;17.52;2.42;;;7.70;99.90;;;;;;5021519;28;20076;-88
2021/12/28 02:25:44;;;;;;;13.73;2.83;;;7.80;99.90;;;;;;5034411;28;20040;-88
2021/12/28 02:28:11;;;;;;;8.10;2.22;;;7.80;99.90;;;;;;5042553;28;20520;-87
2021/12/28 02:30:39;;;;;;;6.07;1.50;;;7.80;99.90;;;;;;5015294;28;20128;-88
2021/12/28 02:33:06;;;;;;;9.68;2.35;;;7.80;99.90;;;;;;5031323;28;20701;-88
2021/12/28 02:35:33;;;;;;;9.40;1.83;;;7.80;99.90;;;;;;5014888;28;20555;-88
2021/12/28 02:37:59;;;;;;;22.20;3.08;;;7.80;99.90;;;;;;5034908;28;20456;-88
2021/12/28 02:40:28;;;;;;;7.70;1.60;;;7.80;99.90;;;;;;5050989;28;20146;-88
2021/12/28 02:42:55;;;;;;;8.48;2.08;;;7.80;99.90;;;;;;5022862;28;20037;-88
2021/12/28 02:45:27;;;;;;;9.32;2.00;;;7.80;99.90;;;;;;5026051;28;20388;-88
2021/12/28 02:47:53;;;;;;;9.80;2.40;;;7.80;99.90;;;;;;5003941;28;20194;-88
2021/12/28 02:50:28;;;;;;;9.88;1.60;;;7.80;99.90;;;;;;5051027;28;20233;-88
2021/12/28 02:52:54;;;;;;;14.05;2.17;;;7.80;99.90;;;;;;5049932;28;20684;-88
2021/12/28 02:55:24;;;;;;;9.90;1.30;;;7.90;99.90;;;;;;5049937;28;20052;-88
2021/12/28 02:57:59;;;;;;;8.85;2.13;;;7.90;99.90;;;;;;5050740;28;20101;-88
2021/12/28 03:00:46;;;;;;;17.48;2.47;;;7.90;99.90;;;;;;5022664;28;20045;-88
2021/12/28 03:03:19;;;;;;;13.48;1.75;;;7.90;99.90;;;;;;5028752;28;20069;-88
2021/12/28 03:05:46;;;;;;;13.40;1.75;;;7.90;99.90;;;;;;5021045;28;20028;-88
2021/12/28 03:08:14;;;;;;;18.38;2.47;;;7.90;99.90;;;;;;5034671;28;20401;-88
2021/12/28 03:10:42;;;;;;;9.43;1.85;;;7.90;99.90;;;;;;5019287;28;20139;-88
2021/12/28 03:13:12;;;;;;;6.25;1.88;;;7.90;99.90;;;;;;5034518;28;20032;-88
2021/12/28 03:15:38;;;;;;;11.85;1.63;;;7.80;99.90;;;;;;5048734;28;20036;-88
2021/12/28 03:18:04;;;;;;;13.95;2.22;;;7.80;99.90;;;;;;5017827;28;20033;-88
2021/12/28 03:20:29;;;;;;;15.52;1.95;;;7.80;99.90;;;;;;5027438;28;20036;-88
2021/12/28 03:22:55;;;;;;;8.20;1.77;;;7.80;99.90;;;;;;5071934;28;20024;-88
2021/12/28 03:25:25;;;;;;;15.40;2.35;;;7.80;99.90;;;;;;5017144;28;20550;-88
2021/12/28 03:27:50;;;;;;;12.23;2.07;;;7.80;99.90;;;;;;5034537;28;20492;-88
2021/12/28 03:30:18;;;;;;;12.65;1.83;;;7.70;99.90;;;;;;5014974;28;20278;-88
2021/12/28 03:32:46;;;;;;;8.73;1.70;;;7.70;99.90;;;;;;5050077;28;20029;-88
2021/12/28 03:35:14;;;;;;;10.43;1.73;;;7.70;99.90;;;;;;5027214;28;20024;-88
2021/12/28 03:37:40;;;;;;;10.57;2.55;;;7.70;99.90;;;;;;5013941;28;20025;-88
2021/12/28 03:40:10;;;;;;;12.52;1.60;;;7.70;99.90;;;;;;5035226;28;20037;-88
2021/12/28 03:42:36;;;;;;;10.75;2.15;;;7.70;99.90;;;;;;5044134;28;20044;-88
2021/12/28 03:45:04;;;;;;;8.52;1.70;;;7.70;99.90;;;;;;5034047;28;20040;-88
2021/12/28 03:47:30;;;;;;;10.07;1.80;;;7.70;99.90;;;;;;5007891;28;20028;-88
2021/12/28 03:49:55;;;;;;;9.75;1.40;;;7.60;99.90;;;;;;5001036;28;20435;-88
2021/12/28 03:52:21;;;;;;;3.65;1.17;;;7.70;99.90;;;;;;5034936;28;20047;-88
2021/12/28 03:54:46;;;;;;;8.55;1.90;;;7.60;99.90;;;;;;5041181;28;20512;-88
2021/12/28 03:57:12;;;;;;;3.47;1.35;;;7.60;99.90;;;;;;5011707;28;20029;-88
2021/12/28 03:59:38;;;;;;;12.80;1.50;;;7.60;99.90;;;;;;5000769;28;20033;-88
2021/12/28 04:02:04;;;;;;;5.40;1.33;;;7.60;99.90;;;;;;5036101;28;20112;-86
2021/12/28 04:04:30;;;;;;;6.95;1.38;;;7.60;99.90;;;;;;5018140;28;20056;-86
2021/12/28 04:06:56;;;;;;;5.72;1.40;;;7.60;99.90;;;;;;5041261;28;20033;-86
2021/12/28 04:09:45;;;;;;;6.47;1.10;;;7.60;99.90;;;;;;5036188;28;20036;-86
2021/12/28 04:12:08;;;;;;;6.07;1.27;;;7.60;99.90;;;;;;5065879;28;20032;-86
2021/12/28 04:14:37;;;;;;;2.38;1.20;;;7.60;99.90;;;;;;5041783;28;20505;-87
2021/12/28 04:17:02;;;;;;;7.38;1.02;;;7.60;99.90;;;;;;5026785;28;20032;-86
2021/12/28 04:19:28;;;;;;;2.97;1.40;;;7.60;99.90;;;;;;5042857;28;20359;-86
2021/12/28 04:21:53;;;;;;;9.05;1.30;;;7.60;99.90;;;;;;5024507;28;20041;-86
2021/12/28 04:24:19;;;;;;;7.43;1.27;;;7.60;99.90;;;;;;5075476;28;20419;-86
2021/12/28 04:26:45;;;;;;;5.07;1.17;;;7.60;99.90;;;;;;5039811;28;20520;-87
2021/12/28 04:29:10;;;;;;;4.38;1.08;;;7.60;99.90;;;;;;5022598;28;20024;-86
2021/12/28 04:31:36;;;;;;;3.08;1.20;;;7.60;99.90;;;;;;5023824;28;20112;-86
2021/12/28 04:34:02;;;;;;;6.90;1.27;;;7.60;99.90;;;;;;5054110;28;20036;-86
2021/12/28 04:36:28;;;;;;;2.70;1.00;;;7.60;99.90;;;;;;5039567;28;20029;-86
2021/12/28 04:38:54;;;;;;;7.53;1.38;;;7.60;99.90;;;;;;5037619;28;20036;-86
2021/12/28 04:41:19;;;;;;;3.08;1.25;;;7.60;99.90;;;;;;5037016;28;20086;-86
2021/12/28 04:43:48;;;;;;;9.20;1.02;;;7.60;99.90;;;;;;5039914;28;20032;-86
2021/12/28 04:46:14;;;;;;;2.05;1.08;;;7.60;99.90;;;;;;5054822;28;20649;-86
2021/12/28 04:48:40;;;;;;;1.60;0.90;;;7.60;99.90;;;;;;5053709;28;20044;-86
2021/12/28 04:51:06;;;;;;;1.50;0.88;;;7.60;99.90;;;;;;5039348;28;20044;-87
2021/12/28 04:53:32;;;;;;;2.58;0.80;;;7.60;99.90;;;;;;5056318;28;20060;-86
2021/12/28 04:55:58;;;;;;;4.15;0.80;;;7.60;99.90;;;;;;5019456;28;20029;-86
2021/12/28 04:58:24;;;;;;;2.20;0.70;;;7.60;99.90;;;;;;5036243;28;20033;-86
2021/12/28 05:00:51;;;;;;;5.57;0.98;;;7.60;99.90;;;;;;5036676;28;20068;-86
2021/12/28 05:03:18;;;;;;;2.60;1.50;;;7.60;99.90;;;;;;5003262;28;20517;-86
2021/12/28 05:05:46;;;;;;;3.20;0.88;;;7.60;99.90;;;;;;5003364;28;20025;-86
2021/12/28 05:08:13;;;;;;;9.35;1.13;;;7.60;99.90;;;;;;5030128;28;20033;-86
2021/12/28 05:10:40;;;;;;;0.82;0.57;;;7.60;99.90;;;;;;5036227;28;20044;-86
2021/12/28 05:13:06;;;;;;;0.98;0.43;;;7.60;99.90;;;;;;5046480;28;20025;-86
2021/12/28 05:15:35;;;;;;;1.23;0.60;;;7.60;99.90;;;;;;5051233;28;20040;-86
2021/12/28 05:18:04;;;;;;;3.33;0.82;;;7.50;99.90;;;;;;5055665;28;20025;-86
2021/12/28 05:20:30;;;;;;;5.45;0.90;;;7.50;99.90;;;;;;5023223;28;20082;-86
2021/12/28 05:22:56;;;;;;;0.60;0.50;;;7.60;99.90;;;;;;5055434;28;20035;-86
2021/12/28 05:25:22;;;;;;;3.88;0.77;;;7.50;99.90;;;;;;5056389;28;20032;-86
2021/12/28 05:27:48;;;;;;;6.47;1.15;;;7.50;99.90;;;;;;5047957;28;20120;-86
2021/12/28 05:30:14;;;;;;;0.63;0.45;;;7.50;99.90;;;;;;5019172;28;20064;-86
2021/12/28 05:32:39;;;;;;;1.90;0.55;;;7.50;99.90;;;;;;5020001;28;20406;-86
2021/12/28 05:35:07;;;;;;;1.10;0.60;;;7.50;99.90;;;;;;5036387;28;20040;-86
2021/12/28 05:37:33;;;;;;;5.35;0.60;;;7.50;99.90;;;;;;5051180;28;20021;-86
2021/12/28 05:40:03;;;;;;;0.80;0.45;;;7.50;99.90;;;;;;5038710;28;20025;-86
2021/12/28 05:42:29;;;;;;;0.80;0.40;;;7.50;99.90;;;;;;5054787;28;20028;-86
2021/12/28 05:44:55;;;;;;;3.30;0.60;;;7.50;99.90;;;;;;5054043;28;20060;-86
2021/12/28 05:47:20;;;;;;;2.58;0.60;;;7.50;99.90;;;;;;5017471;28;20393;-86
2021/12/28 05:49:46;;;;;;;3.45;0.60;;;7.50;99.90;;;;;;5002663;28;20033;-86
2021/12/28 05:52:12;;;;;;;3.40;0.55;;;7.50;99.90;;;;;;5046493;28;20032;-86
2021/12/28 05:54:38;;;;;;;1.73;0.68;;;7.50;99.90;;;;;;5038425;28;20119;-86
2021/12/28 05:57:04;;;;;;;3.42;0.63;;;7.50;99.90;;;;;;5055843;28;20020;-86
2021/12/28 05:59:30;;;;;;;6.32;0.88;;;7.50;99.90;;;;;;5038013;28;20029;-86
2021/12/28 06:01:56;;;;;;;1.02;0.55;;;7.40;99.90;;;;;;5073626;28;20611;-86
2021/12/28 06:04:22;;;;;;;0.85;0.30;;;7.50;99.90;;;;;;5044569;28;20055;-86
2021/12/28 06:06:47;;;;;;;3.00;0.70;;;7.50;99.90;;;;;;5066578;28;20459;-86
2021/12/28 06:09:13;;;;;;;4.47;1.23;;;7.40;99.90;;;;;;5023187;28;20059;-86
2021/12/28 06:11:39;;;;;;;2.30;0.50;;;7.50;99.90;;;;;;5039022;28;20033;-86
2021/12/28 06:14:05;;;;;;;0.40;0.40;;;7.50;99.90;;;;;;5050744;28;20029;-86
2021/12/28 06:16:32;;;;;;;1.63;0.32;;;7.40;99.90;;;;;;5035096;28;20021;-86
2021/12/28 06:18:57;;;;;;;1.10;0.60;;;7.40;99.90;;;;;;5018068;28;20116;-86
2021/12/28 06:21:24;;;;;;;1.80;0.50;;;7.40;99.90;;;;;;5032777;28;20060;-86
2021/12/28 06:23:49;;;;;;;0.77;0.35;;;7.40;99.90;;;;;;5038115;28;20032;-86
2021/12/28 06:26:15;;;;;;;4.43;0.50;;;7.40;99.90;;;;;;5044651;28;20393;-86
2021/12/28 06:28:40;;;;;;;0.60;0.32;;;7.40;99.90;;;;;;5029762;28;20130;-86
2021/12/28 06:31:06;;;;;;;0.90;0.40;;;7.40;99.90;;;;;;5038277;28;20025;-85
2021/12/28 06:33:32;;;;;;;1.10;0.50;;;7.40;99.90;;;;;;5047778;28;20030;-86
2021/12/28 06:35:57;;;;;;;0.60;0.40;;;7.40;99.90;;;;;;5016964;28;20043;-86
2021/12/28 06:38:23;;;;;;;1.92;0.32;;;7.40;99.90;;;;;;4999177;28;20053;-86
2021/12/28 06:40:49;;;;;;;5.38;0.50;;;7.40;99.90;;;;;;5017324;28;20033;-86
2021/12/28 06:43:18;;;;;;;0.65;0.22;;;7.40;99.90;;;;;;5033672;28;20120;-86
2021/12/28 06:45:43;;;;;;;1.45;0.40;;;7.40;99.90;;;;;;5045851;28;20041;-86
2021/12/28 06:48:09;;;;;;;0.82;0.35;;;7.40;99.90;;;;;;5028828;28;20383;-86
2021/12/28 06:50:35;;;;;;;1.52;0.50;;;7.40;99.90;;;;;;5033512;28;20489;-86
2021/12/28 06:53:02;;;;;;;0.50;0.50;;;7.40;99.90;;;;;;5066092;28;20039;-86
2021/12/28 06:55:27;;;;;;;1.27;0.30;;;7.40;99.90;;;;;;5027063;28;20033;-85
2021/12/28 06:57:53;;;;;;;0.77;0.40;;;7.40;99.90;;;;;;5020088;28;20028;-85
2021/12/28 07:00:19;;;;;;;1.67;0.45;;;7.40;99.90;;;;;;5046384;28;20025;-85
2021/12/28 07:02:48;;;;;;;2.40;0.80;;;7.40;99.90;;;;;;5056857;28;20398;-85
2021/12/28 07:05:13;;;;;;;1.38;0.75;;;7.50;99.90;;;;;;5055242;28;20036;-85
2021/12/28 07:07:40;;;;;;;1.23;0.50;;;7.50;99.90;;;;;;5014317;28;20107;-86
2021/12/28 07:10:07;;;;;;;0.35;0.35;;;7.50;99.90;;;;;;5053710;28;20075;-87
2021/12/28 07:12:34;;;;;;;0.65;0.65;;;7.50;99.90;;;;;;5019986;28;20039;-86
2021/12/28 07:14:59;;;;;;;1.77;0.30;;;7.50;99.90;;;;;;5061097;28;20017;-86
2021/12/28 07:17:26;;;;;;;0.57;0.45;;;7.50;99.90;;;;;;5005854;28;20104;-86
2021/12/28 07:19:53;;;;;;;3.50;0.50;;;7.50;99.90;;;;;;5022321;28;20095;-86
2021/12/28 07:22:19;;;;;;;1.13;0.60;;;7.50;99.90;;;;;;5053764;28;20029;-86
2021/12/28 07:24:45;;;;;;;2.22;0.82;;;7.60;99.90;;;;;;5019952;28;20078;-86
2021/12/28 07:27:10;;;;;;;1.35;0.70;;;7.60;99.90;;;;;;5053864;28;20028;-86
2021/12/28 07:29:36;;;;;;;1.00;0.63;;;7.60;99.90;;;;;;5037224;28;20477;-86
2021/12/28 07:32:04;;;;;;;1.42;0.88;;;7.60;99.90;;;;;;5021164;28;20029;-86
2021/12/28 07:34:31;;;;;;;0.88;0.63;;;7.60;99.90;;;;;;5036923;28;20036;-86
2021/12/28 07:36:57;;;;;;;1.30;0.88;;;7.60;99.90;;;;;;5036692;28;20025;-86
2021/12/28 07:39:22;;;;;;;1.80;0.40;;;7.60;99.90;;;;;;5004996;28;20041;-86
2021/12/28 07:41:50;;;;;;;0.50;0.40;;;7.70;99.90;;;;;;5024660;28;20044;-86
2021/12/28 07:44:16;;;;;;;1.00;0.73;;;7.70;99.90;;;;;;5048574;28;20032;-86
2021/12/28 07:46:42;;;;;;;2.08;0.40;;;7.70;99.90;;;;;;5052827;28;20029;-86
2021/12/28 07:49:07;;;;;;;2.15;0.50;;;7.70;99.90;;;;;;5059160;28;20035;-85
2021/12/28 07:51:33;;;;;;;0.52;0.40;;;7.70;99.90;;;;;;5059641;28;20029;-86
2021/12/28 07:53:59;;;;;;;2.75;0.73;;;7.70;99.90;;;;;;5042673;28;20056;-86
2021/12/28 07:56:24;;;;;;;2.60;0.60;;;7.80;99.90;;;;;;5049355;28;20087;-86
2021/12/28 07:58:50;;;;;;;2.33;0.65;;;7.80;99.90;;;;;;5056475;28;20485;-85
2021/12/28 08:01:16;;;;;;;1.05;0.52;;;7.90;99.90;;;;;;5058671;28;20044;-86
2021/12/28 08:03:42;;;;;;;0.50;0.30;;;7.90;99.90;;;;;;5058616;28;20044;-86
2021/12/28 08:06:07;;;;;;;0.80;0.80;;;7.90;99.90;;;;;;5039544;28;20029;-85
2021/12/28 08:08:36;;;;;;;0.25;0.25;;;7.90;99.90;;;;;;5060307;28;20075;-86
2021/12/28 08:11:01;;;;;;;0.20;0.20;;;8.00;99.90;;;;;;5071002;28;20033;-86
2021/12/28 08:13:27;;;;;;;0.17;0.17;;;8.10;99.90;;;;;;5059849;28;20100;-85
2021/12/28 08:15:53;;;;;;;3.20;0.40;;;8.10;99.90;;;;;;5053733;28;20154;-85
2021/12/28 08:18:19;;;;;;;0.20;0.20;;;8.10;99.90;;;;;;5039949;28;20044;-85
2021/12/28 08:20:44;;;;;;;0.20;0.20;;;8.10;99.90;;;;;;5034627;28;20665;-86
2021/12/28 08:23:10;;;;;;;0.82;0.77;;;8.20;99.90;;;;;;5078855;28;20017;-86
2021/12/28 08:25:36;;;;;;;0.88;0.68;;;8.20;99.90;;;;;;5042080;28;20025;-86
2021/12/28 08:28:04;;;;;;;0.40;0.32;;;8.20;99.90;;;;;;5059531;28;20043;-85
2021/12/28 08:30:34;;;;;;;0.17;0.17;;;8.30;99.90;;;;;;5055661;28;20024;-86
2021/12/28 08:33:01;;;;;;;0.60;0.30;;;8.30;99.90;;;;;;5047166;28;20043;-86
2021/12/28 08:35:27;;;;;;;0.30;0.30;;;8.40;99.90;;;;;;5046731;28;20032;-86
2021/12/28 08:37:53;;;;;;;0.57;0.30;;;8.40;99.90;;;;;;5059762;28;20082;-86
2021/12/28 08:40:20;;;;;;;0.50;0.30;;;8.50;99.90;;;;;;5022647;28;20032;-85
2021/12/28 08:42:46;;;;;;;0.63;0.63;;;8.50;99.90;;;;;;5040382;28;20036;-86
2021/12/28 08:45:11;;;;;;;1.55;0.47;;;8.60;99.90;;;;;;5026739;28;20231;-86
2021/12/28 08:47:40;;;;;;;3.72;0.38;;;8.60;99.90;;;;;;5043789;28;20504;-87
2021/12/28 08:50:09;;;;;;;0.73;0.50;;;8.70;99.90;;;;;;5046321;28;20115;-85
2021/12/28 08:52:35;;;;;;;0.93;0.38;;;8.70;99.90;;;;;;5061669;28;20044;-86
2021/12/28 08:55:02;;;;;;;0.43;0.30;;;8.80;99.90;;;;;;5031034;28;20025;-86
2021/12/28 08:57:28;;;;;;;0.80;0.28;;;8.70;99.90;;;;;;5040812;28;20037;-85
2021/12/28 08:59:53;;;;;;;0.45;0.32;;;8.70;99.90;;;;;;5039259;28;20115;-87
2021/12/28 09:02:19;;;;;;;0.70;0.40;;;8.80;99.90;;;;;;5026124;28;20124;-88
2021/12/28 09:04:46;;;;;;;0.75;0.50;;;8.80;99.90;;;;;;4997385;28;20038;-88
2021/12/28 09:07:13;;;;;;;0.50;0.40;;;8.80;99.90;;;;;;5054539;28;20405;-88
2021/12/28 09:09:39;;;;;;;0.40;0.40;;;8.90;99.90;;;;;;5033689;28;20033;-88
2021/12/28 09:12:05;;;;;;;0.30;0.30;;;8.90;99.90;;;;;;5033537;28;20132;-89
2021/12/28 09:14:32;;;;;;;0.60;0.40;;;8.90;99.90;;;;;;5034179;28;20409;-89
2021/12/28 09:16:58;;;;;;;0.25;0.25;;;9.00;99.90;;;;;;5026364;28;20025;-89
2021/12/28 09:19:24;;;;;;;1.65;0.38;;;8.90;99.90;;;;;;5049890;28;20027;-88
2021/12/28 09:21:50;;;;;;;1.20;0.30;;;9.00;99.90;;;;;;5066375;28;20112;-88
2021/12/28 09:24:15;;;;;;;3.05;0.63;;;9.00;99.90;;;;;;5076134;22;20100;-86
2021/12/28 09:26:41;;;;;;;1.10;0.70;;;9.00;99.90;;;;;;5059022;28;20059;-86
2021/12/28 09:29:07;;;;;;;0.90;0.90;;;9.10;99.90;;;;;;5059618;28;20020;-86
2021/12/28 09:31:33;;;;;;;1.48;1.13;;;9.10;99.90;;;;;;5061447;28;20506;-87
2021/12/28 09:33:59;;;;;;;2.35;1.48;;;9.20;99.90;;;;;;5047972;28;20059;-84
2021/12/28 09:36:25;;;;;;;2.47;1.10;;;9.10;99.90;;;;;;5064091;28;20029;-86
2021/12/28 09:38:51;;;;;;;2.00;1.15;;;9.20;99.90;;;;;;5048272;28;20523;-85
2021/12/28 09:41:17;;;;;;;2.47;1.15;;;9.20;99.90;;;;;;5068382;28;20027;-86
2021/12/28 09:43:43;;;;;;;1.10;1.00;;;9.20;99.90;;;;;;5061440;28;20036;-86
2021/12/28 09:46:09;;;;;;;1.30;1.00;;;9.20;99.90;;;;;;5045369;28;20119;-85
2021/12/28 09:48:36;;;;;;;3.38;1.13;;;9.20;99.90;;;;;;5062486;28;20059;-85
2021/12/28 09:51:02;;;;;;;1.98;1.20;;;9.30;99.90;;;;;;5028446;28;20410;-85
2021/12/28 09:53:30;;;;;;;1.15;0.90;;;9.30;99.90;;;;;;5038264;28;20508;-85
2021/12/28 09:55:56;;;;;;;2.05;1.10;;;9.40;99.90;;;;;;5021393;28;20039;-85
2021/12/28 09:58:25;;;;;;;4.93;2.08;;;9.40;99.90;;;;;;5038096;28;20472;-85
2021/12/28 10:00:51;;;;;;;4.05;1.50;;;9.40;99.90;;;;;;5052979;28;20622;-85
2021/12/28 10:03:17;;;;;;;2.80;1.00;;;9.40;99.90;;;;;;5054417;28;20043;-84
2021/12/28 10:05:43;;;;;;;1.73;0.80;;;9.40;99.90;;;;;;5081049;28;20024;-83
2021/12/28 10:08:10;;;;;;;1.40;0.85;;;9.40;99.90;;;;;;5078635;28;20063;-84
2021/12/28 10:10:41;;;;;;;1.85;0.90;;;9.40;99.90;;;;;;5067963;28;20040;-84
2021/12/28 10:13:10;;;;;;;3.08;0.90;;;9.40;99.90;;;;;;5044424;28;20043;-84
2021/12/28 10:15:38;;;;;;;1.00;0.70;;;9.40;99.90;;;;;;5050627;28;20493;-84
2021/12/28 10:18:08;;;;;;;1.35;0.80;;;9.50;99.90;;;;;;5075702;28;20028;-84
2021/12/28 10:20:41;;;;;;;1.00;0.90;;;9.50;99.90;;;;;;5076499;28;20034;-84
2021/12/28 10:23:10;;;;;;;0.50;0.50;;;9.50;99.90;;;;;;5092750;28;20491;-84
2021/12/28 10:25:39;;;;;;;0.93;0.50;;;9.50;99.90;;;;;;5076112;28;20032;-84
2021/12/28 10:28:14;;;;;;;1.25;0.80;;;9.50;99.90;;;;;;5090307;28;20036;-84
2021/12/28 10:30:51;;;;;;;1.88;0.80;;;9.60;99.90;;;;;;5062792;28;20039;-84
2021/12/28 10:33:20;;;;;;;2.67;0.90;;;9.60;99.90;;;;;;5060092;28;20603;-84
2021/12/28 10:35:58;;;;;;;0.70;0.60;;;9.70;99.90;;;;;;5041837;28;20063;-84
2021/12/28 10:38:28;;;;;;;1.60;0.90;;;9.70;99.90;;;;;;5073862;28;20221;-84
2021/12/28 10:40:57;;;;;;;1.45;0.98;;;9.70;99.90;;;;;;5058583;28;20079;-84
2021/12/28 10:43:25;;;;;;;2.35;0.82;;;9.70;99.90;;;;;;5063186;28;20115;-85
2021/12/28 10:46:01;;;;;;;2.13;1.02;;;9.70;99.90;;;;;;5060036;28;20032;-85
2021/12/28 10:48:36;;;;;;;2.67;0.80;;;9.80;99.90;;;;;;5057119;28;20094;-84
2021/12/28 10:51:12;;;;;;;1.30;0.75;;;9.80;99.90;;;;;;5029242;28;20025;-85
2021/12/28 10:56:49;;;;;;;0.77;0.43;;;9.80;99.90;;;;;;5068003;28;20025;-85
2021/12/28 10:59:21;;;;;;;0.85;0.70;;;9.80;99.90;;;;;;5091222;28;20039;-84
2021/12/28 11:01:47;;;;;;;1.67;0.80;;;9.80;99.90;;;;;;5080601;28;20035;-84
2021/12/28 11:04:13;;;;;;;1.35;0.50;;;9.80;99.90;;;;;;5083368;28;20044;-85
2021/12/28 11:06:48;;;;;;;1.58;0.60;;;9.90;99.90;;;;;;5074127;28;20139;-85
2021/12/28 11:09:18;;;;;;;0.35;0.32;;;10.00;99.90;;;;;;5056525;28;20028;-84
2021/12/28 11:11:45;;;;;;;3.15;0.80;;;10.10;99.90;;;;;;5043233;28;20388;-84
2021/12/28 11:14:14;;;;;;;0.55;0.50;;;10.10;99.90;;;;;;5075581;28;20024;-85
2021/12/28 11:16:40;;;;;;;0.68;0.52;;;10.10;99.90;;;;;;5061073;28;20039;-84
2021/12/28 11:19:08;;;;;;;0.82;0.60;;;10.20;99.90;;;;;;5075801;28;20025;-84
2021/12/28 11:21:39;;;;;;;0.75;0.50;;;10.20;99.90;;;;;;5061680;28;20024;-84
2021/12/28 11:24:10;;;;;;;7.38;1.00;;;10.20;99.90;;;;;;5079410;28;20055;-84
2021/12/28 11:26:38;;;;;;;0.30;0.30;;;10.10;99.90;;;;;;5065864;28;20115;-84
2021/12/28 11:29:06;;;;;;;0.70;0.50;;;10.20;99.90;;;;;;5043215;28;20070;-85
2021/12/28 11:31:38;;;;;;;1.45;0.50;;;10.20;99.90;;;;;;5058816;28;20033;-85
2021/12/28 11:34:06;;;;;;;0.68;0.65;;;10.20;99.90;;;;;;5040768;28;20043;-85
2021/12/28 11:36:35;;;;;;;2.22;0.73;;;10.20;99.90;;;;;;5057496;28;20024;-84
2021/12/28 11:39:05;;;;;;;3.17;1.17;;;10.20;99.90;;;;;;5058717;28;20044;-84
2021/12/28 11:41:31;;;;;;;1.75;0.60;;;10.20;99.90;;;;;;5069792;28;20020;-85
2021/12/28 11:43:57;;;;;;;0.30;0.30;;;10.20;99.90;;;;;;5090162;28;20032;-84
2021/12/28 11:46:27;;;;;;;0.65;0.40;;;10.10;99.90;;;;;;5073842;28;20373;-84
2021/12/28 11:48:53;;;;;;;4.00;0.68;;;10.10;99.90;;;;;;5062163;28;20057;-84
2021/12/28 11:51:20;;;;;;;6.65;0.75;;;10.10;99.90;;;;;;5097975;28;20034;-85
2021/12/28 11:53:47;;;;;;;1.15;0.68;;;10.10;99.90;;;;;;5076704;28;20432;-84
2021/12/28 11:56:16;;;;;;;1.98;0.40;;;10.20;99.90;;;;;;5061530;28;20024;-84
2021/12/28 11:58:53;;;;;;;1.02;0.80;;;10.20;99.90;;;;;;5059586;28;20062;-84
2021/12/28 12:01:40;;;;;;;0.68;0.50;;;10.10;99.90;;;;;;5061403;28;20225;-84
2021/12/28 12:04:34;;;;;;;2.45;0.40;;;10.10;99.90;;;;;;5096110;28;20100;-84
2021/12/28 12:07:15;;;;;;;0.55;0.40;;;10.10;99.90;;;;;;5094480;28;20519;-84
2021/12/28 12:09:50;;;;;;;1.02;0.50;;;10.10;99.90;;;;;;5073084;28;20085;-84
2021/12/28 12:12:44;;;;;;;4.82;0.60;;;10.00;99.90;;;;;;5073500;28;20365;-84
2021/12/28 12:15:11;;;;;;;2.72;0.65;;;10.00;99.90;;;;;;5067219;28;20119;-84
2021/12/28 12:17:43;;;;;;;1.23;0.60;;;10.00;99.90;;;;;;5076070;28;20056;-84
2021/12/28 12:20:24;;;;;;;2.58;0.50;;;9.90;99.90;;;;;;5059165;28;20028;-84
2021/12/28 12:23:07;;;;;;;4.55;0.90;;;9.90;99.90;;;;;;5065301;28;20392;-84
2021/12/28 12:25:56;;;;;;;1.52;0.50;;;9.90;99.90;;;;;;5055405;28;20041;-84
2021/12/28 12:28:37;;;;;;;3.20;0.90;;;9.90;99.90;;;;;;5071736;28;20032;-84
2021/12/28 12:31:04;;;;;;;0.73;0.55;;;9.90;99.90;;;;;;5037187;28;20383;-84
2021/12/28 12:33:42;;;;;;;0.85;0.55;;;9.90;99.90;;;;;;5053603;28;20029;-84
2021/12/28 12:36:27;;;;;;;2.58;0.50;;;9.90;99.90;;;;;;5052701;28;20035;-84
2021/12/28 12:38:56;;;;;;;3.70;0.60;;;9.90;99.90;;;;;;5087322;28;20032;-84
2021/12/28 12:41:37;;;;;;;2.28;0.57;;;9.90;99.90;;;;;;5073657;28;20393;-83
2021/12/28 12:44:07;;;;;;;;;;;9.80;99.90;;;;;;5057562;28;20040;-82
2021/12/28 12:46:37;;;;;;;2.20;0.65;;;9.80;99.90;;;;;;5091495;28;19908;-83
2021/12/28 12:49:24;;;;;;;4.72;0.70;;;9.80;99.90;;;;;;5073180;28;20108;-84
2021/12/28 12:52:00;;;;;;;1.88;0.65;;;9.80;99.90;;;;;;5071157;28;20492;-84
2021/12/28 12:54:29;;;;;;;2.03;0.88;;;9.70;99.90;;;;;;5072853;28;20032;-84
2021/12/28 12:56:57;;;;;;;4.80;0.82;;;9.70;99.90;;;;;;5055939;28;20032;-84
2021/12/28 12:59:35;;;;;;;4.32;0.90;;;9.70;99.90;;;;;;5073258;28;20028;-83
2021/12/28 13:02:04;;;;;;;4.50;0.60;;;9.70;99.90;;;;;;5082418;28;20024;-84